createdAt,value
2022-10-18T00:00:37.363Z,183.93
2022-10-18T00:02:39.662Z,188.48
2022-10-18T00:04:41.956Z,175.77
2022-10-18T00:06:44.260Z,176.35
2022-10-18T00:08:46.510Z,189.13
2022-10-18T00:10:48.853Z,184.43
2022-10-18T00:12:51.374Z,175.75
2022-10-18T00:14:53.868Z,175.52
2022-10-18T00:16:56.164Z,171.52
2022-10-18T00:18:58.413Z,169.50
2022-10-18T00:21:02.189Z,183.00
2022-10-18T00:23:04.470Z,175.35
2022-10-18T00:25:07.250Z,171.63
2022-10-18T00:27:09.517Z,170.63
2022-10-18T00:29:14.297Z,166.43
2022-10-18T00:31:17.775Z,171.27
2022-10-18T00:33:20.160Z,177.00
2022-10-18T00:35:22.563Z,166.52
2022-10-18T00:37:24.826Z,163.90
2022-10-18T00:39:27.112Z,150.90
2022-10-18T00:41:30.398Z,154.77
2022-10-18T00:43:32.697Z,158.73
2022-10-18T00:45:34.995Z,160.90
2022-10-18T00:47:37.392Z,159.75
2022-10-18T00:49:39.636Z,157.18
2022-10-18T00:51:56.012Z,163.52
2022-10-18T00:53:58.424Z,155.93
2022-10-18T00:56:00.745Z,159.10
2022-10-18T00:58:04.448Z,153.52
2022-10-18T01:00:10.275Z,145.30
2022-10-18T01:02:15.088Z,156.20
2022-10-18T01:04:18.471Z,154.77
2022-10-18T01:06:20.884Z,149.63
2022-10-18T01:08:37.218Z,151.68
2022-10-18T01:10:45.207Z,151.45
2022-10-18T01:13:05.972Z,150.57
2022-10-18T01:15:26.552Z,151.57
2022-10-18T01:17:32.923Z,143.57
2022-10-18T01:19:38.458Z,140.75
2022-10-18T01:21:40.823Z,145.45
2022-10-18T01:23:46.159Z,145.57
2022-10-18T01:25:48.487Z,144.68
2022-10-18T01:27:50.804Z,142.68
2022-10-18T01:29:53.028Z,143.77
2022-10-18T01:32:00.770Z,140.52
2022-10-18T01:34:04.406Z,131.43
2022-10-18T01:36:16.327Z,139.95
2022-10-18T01:38:20.392Z,140.52
2022-10-18T01:40:23.087Z,132.43
2022-10-18T01:42:25.452Z,136.18
2022-10-18T01:44:30.236Z,131.18
2022-10-18T01:46:33.474Z,134.73
2022-10-18T01:48:38.057Z,128.57
2022-10-18T01:50:40.386Z,130.63
2022-10-18T01:52:52.601Z,127.47
2022-10-18T01:54:55.848Z,126.13
2022-10-18T01:56:58.216Z,124.88
2022-10-18T01:59:06.154Z,127.55
2022-10-18T02:01:28.674Z,128.20
2022-10-18T02:03:31.125Z,134.23
2022-10-18T02:05:33.367Z,122.13
2022-10-18T02:08:05.623Z,127.68
2022-10-18T02:10:21.513Z,120.72
2022-10-18T02:12:24.248Z,121.93
2022-10-18T02:14:26.694Z,121.07
2022-10-18T02:16:33.083Z,120.43
2022-10-18T02:18:37.662Z,124.78
2022-10-18T02:20:40.144Z,118.25
2022-10-18T02:22:43.640Z,114.13
2022-10-18T02:24:49.171Z,119.30
2022-10-18T02:26:51.509Z,117.63
2022-10-18T02:28:53.953Z,115.25
2022-10-18T02:31:03.664Z,119.25
2022-10-18T02:33:09.132Z,114.95
2022-10-18T02:35:17.660Z,117.20
2022-10-18T02:39:24.557Z,111.97
2022-10-18T02:41:28.064Z,116.07
2022-10-18T02:43:30.324Z,114.35
2022-10-18T02:45:33.124Z,107.30
2022-10-18T02:47:35.651Z,110.00
2022-10-18T02:49:37.895Z,105.93
2022-10-18T02:51:40.161Z,109.70
2022-10-18T02:53:42.483Z,107.50
2022-10-18T02:55:44.788Z,104.05
2022-10-18T02:57:47.065Z,100.70
2022-10-18T02:59:49.346Z,102.72
2022-10-18T03:01:51.737Z,104.90
2022-10-18T03:03:54.086Z,97.88
2022-10-18T03:05:56.368Z,101.63
2022-10-18T03:07:58.661Z,98.53
2022-10-18T03:10:00.978Z,99.55
2022-10-18T03:12:03.268Z,104.22
2022-10-18T03:14:05.502Z,96.07
2022-10-18T03:16:07.949Z,101.95
2022-10-18T03:18:10.488Z,97.93
2022-10-18T03:20:12.837Z,96.80
2022-10-18T03:22:15.218Z,95.70
2022-10-18T03:24:17.755Z,97.25
2022-10-18T03:26:21.584Z,97.53
2022-10-18T03:28:23.919Z,96.55
2022-10-18T03:30:26.229Z,95.03
2022-10-18T03:32:28.477Z,88.28
2022-10-18T03:34:30.769Z,93.60
2022-10-18T03:36:34.150Z,94.00
2022-10-18T03:38:36.607Z,92.25
2022-10-18T03:40:38.883Z,89.38
2022-10-18T03:42:41.197Z,92.28
2022-10-18T03:44:43.512Z,92.78
2022-10-18T03:46:45.844Z,89.97
2022-10-18T03:48:48.149Z,93.63
2022-10-18T03:50:50.528Z,87.78
2022-10-18T03:52:54.258Z,89.10
2022-10-18T03:54:56.569Z,89.32
2022-10-18T03:56:58.862Z,86.80
2022-10-18T03:59:01.182Z,85.03
2022-10-18T04:01:03.452Z,85.38
2022-10-18T04:03:05.720Z,85.22
2022-10-18T04:05:08.618Z,81.22
2022-10-18T04:07:10.870Z,82.07
2022-10-18T04:09:13.315Z,77.68
2022-10-18T04:11:15.720Z,86.68
2022-10-18T04:13:18.123Z,81.75
2022-10-18T04:15:20.434Z,83.78
2022-10-18T04:17:22.683Z,79.00
2022-10-18T04:19:24.964Z,84.93
2022-10-18T04:21:27.205Z,80.47
2022-10-18T04:23:29.880Z,79.63
2022-10-18T04:25:33.204Z,77.10
2022-10-18T04:27:35.783Z,75.28
2022-10-18T04:29:38.120Z,76.97
2022-10-18T04:31:40.636Z,78.35
2022-10-18T04:33:42.876Z,76.95
2022-10-18T04:35:45.142Z,73.90
2022-10-18T04:37:47.802Z,76.35
2022-10-18T04:39:53.426Z,75.35
2022-10-18T04:41:56.294Z,51.13
2022-10-18T04:43:58.753Z,54.83
2022-10-18T04:46:01.040Z,54.38
2022-10-18T04:48:03.913Z,71.18
2022-10-18T04:50:06.459Z,72.45
2022-10-18T04:52:08.807Z,75.80
2022-10-18T04:54:11.141Z,71.03
2022-10-18T04:56:13.461Z,74.80
2022-10-18T04:58:16.142Z,67.97
2022-10-18T05:00:18.517Z,72.65
2022-10-18T05:02:20.761Z,71.93
2022-10-18T05:04:23.020Z,49.95
2022-10-18T05:06:25.422Z,67.38
2022-10-18T05:08:27.750Z,70.05
2022-10-18T05:10:30.087Z,66.40
2022-10-18T05:12:32.684Z,66.85
2022-10-18T05:14:35.140Z,69.40
2022-10-18T05:16:37.561Z,72.53
2022-10-18T05:18:39.890Z,71.63
2022-10-18T05:20:42.299Z,79.35
2022-10-18T05:22:44.764Z,75.90
2022-10-18T05:24:47.057Z,74.53
2022-10-18T05:26:49.308Z,72.28
2022-10-18T05:28:51.618Z,67.25
2022-10-18T05:30:53.870Z,64.80
2022-10-18T05:32:56.120Z,68.35
2022-10-18T05:34:58.388Z,67.63
2022-10-18T05:37:00.951Z,63.25
2022-10-18T05:39:06.443Z,64.32
2022-10-18T05:41:08.941Z,69.82
2022-10-18T05:43:11.187Z,70.82
2022-10-18T05:45:13.627Z,66.70
2022-10-18T05:47:15.882Z,64.95
2022-10-18T05:49:18.226Z,72.45
2022-10-18T05:51:20.631Z,69.72
2022-10-18T05:53:36.359Z,74.25
2022-10-18T05:55:39.461Z,77.53
2022-10-18T05:57:41.721Z,89.65
2022-10-18T05:59:44.886Z,85.93
2022-10-18T06:01:47.120Z,81.13
2022-10-18T06:03:49.532Z,77.30
2022-10-18T06:05:51.820Z,72.93
2022-10-18T06:07:54.268Z,73.60
2022-10-18T06:09:56.535Z,73.70
2022-10-18T06:11:58.875Z,71.90
2022-10-18T06:14:02.171Z,82.25
2022-10-18T06:16:04.598Z,72.15
2022-10-18T06:18:06.843Z,72.05
2022-10-18T06:20:09.446Z,91.28
2022-10-18T06:22:12.157Z,72.55
2022-10-18T06:24:14.401Z,74.88
2022-10-18T06:26:16.871Z,65.55
2022-10-18T06:28:19.213Z,70.88
2022-10-18T06:30:21.662Z,68.15
2022-10-18T06:32:23.923Z,62.28
2022-10-18T06:34:26.344Z,54.03
2022-10-18T06:36:29.011Z,63.03
2022-10-18T06:38:31.268Z,66.88
2022-10-18T06:40:37.954Z,72.90
2022-10-18T06:42:40.511Z,60.63
2022-10-18T06:44:42.790Z,61.85
2022-10-18T06:46:45.704Z,62.50
2022-10-18T06:48:47.964Z,60.38
2022-10-18T06:50:57.921Z,60.55
2022-10-18T06:53:00.190Z,61.40
2022-10-18T06:55:06.059Z,60.08
2022-10-18T06:57:10.707Z,57.60
2022-10-18T06:59:13.139Z,57.40
2022-10-18T07:01:16.774Z,56.97
2022-10-18T07:03:19.155Z,60.72
2022-10-18T07:05:21.465Z,57.20
2022-10-18T07:07:23.756Z,57.05
2022-10-18T07:09:25.987Z,53.38
2022-10-18T07:11:28.314Z,61.58
2022-10-18T07:13:32.910Z,56.30
2022-10-18T07:15:38.616Z,62.53
2022-10-18T07:17:41.806Z,61.40
2022-10-18T07:19:44.065Z,54.17
2022-10-18T07:21:46.316Z,54.20
2022-10-18T07:23:48.906Z,55.40
2022-10-18T07:25:52.509Z,58.22
2022-10-18T07:27:54.813Z,56.80
2022-10-18T07:29:57.118Z,58.72
2022-10-18T07:31:59.406Z,53.60
2022-10-18T07:34:01.824Z,54.38
2022-10-18T07:36:05.106Z,54.83
2022-10-18T07:38:07.343Z,48.47
2022-10-18T07:40:11.220Z,51.88
2022-10-18T07:42:13.486Z,53.85
2022-10-18T07:44:15.884Z,54.63
2022-10-18T07:46:18.839Z,49.22
2022-10-18T07:48:21.088Z,49.78
2022-10-18T07:50:23.438Z,47.13
2022-10-18T07:52:25.785Z,45.13
2022-10-18T07:54:28.052Z,46.03
2022-10-18T07:56:30.379Z,44.38
2022-10-18T07:58:33.352Z,39.33
2022-10-18T08:00:35.709Z,37.13
2022-10-18T08:02:37.977Z,45.20
2022-10-18T08:04:40.225Z,46.17
2022-10-18T08:06:42.533Z,44.90
2022-10-18T08:08:45.322Z,44.72
2022-10-18T08:10:47.670Z,42.83
2022-10-18T08:12:49.969Z,47.42
2022-10-18T08:14:52.208Z,44.80
2022-10-18T08:16:54.478Z,43.17
2022-10-18T08:18:58.398Z,42.75
2022-10-18T08:21:04.221Z,44.60
2022-10-18T08:23:06.441Z,40.75
2022-10-18T08:25:08.767Z,42.55
2022-10-18T08:27:11.007Z,36.97
2022-10-18T08:31:35.596Z,31.63
2022-10-18T08:33:39.291Z,40.63
2022-10-18T08:35:41.556Z,39.80
2022-10-18T08:37:45.334Z,28.77
2022-10-18T08:39:47.625Z,31.52
2022-10-18T08:41:49.895Z,32.28
2022-10-18T08:44:11.037Z,28.20
2022-10-18T08:46:13.719Z,29.58
2022-10-18T08:48:22.071Z,32.53
2022-10-18T08:50:35.427Z,33.67
2022-10-18T08:52:51.414Z,30.70
2022-10-18T08:55:02.019Z,25.35
2022-10-18T08:57:08.181Z,30.60
2022-10-18T08:59:11.586Z,32.80
2022-10-18T09:01:13.942Z,34.10
2022-10-18T09:03:34.847Z,27.05
2022-10-18T09:05:43.347Z,33.25
2022-10-18T09:07:57.184Z,29.83
2022-10-18T09:10:04.947Z,28.33
2022-10-18T09:12:18.495Z,29.15
2022-10-18T09:14:48.821Z,28.15
2022-10-18T09:16:53.683Z,27.65
2022-10-18T09:19:18.468Z,27.58
2022-10-18T09:21:22.877Z,27.25
2022-10-18T09:23:45.221Z,25.17
2022-10-18T09:25:49.192Z,28.05
2022-10-18T09:27:55.885Z,27.10
2022-10-18T09:30:00.782Z,23.23
2022-10-18T09:32:08.158Z,23.92
2022-10-18T09:34:13.677Z,28.63
2022-10-18T09:36:27.619Z,24.70
2022-10-18T09:38:32.240Z,24.70
2022-10-18T09:40:36.973Z,27.73
2022-10-18T09:42:43.087Z,31.67
2022-10-18T09:44:49.725Z,29.42
2022-10-18T09:47:02.774Z,29.38
2022-10-18T09:49:07.760Z,31.38
2022-10-18T09:51:24.368Z,33.92
2022-10-18T09:53:34.180Z,31.25
2022-10-18T09:55:39.785Z,29.55
2022-10-18T09:57:44.117Z,31.80
2022-10-18T09:59:50.102Z,30.92
2022-10-18T10:01:52.396Z,26.83
2022-10-18T10:03:54.652Z,29.38
2022-10-18T10:06:03.175Z,30.65
2022-10-18T10:08:05.601Z,27.73
2022-10-18T10:10:15.791Z,27.88
2022-10-18T10:12:31.393Z,30.65
2022-10-18T10:14:43.473Z,30.40
2022-10-18T10:16:50.458Z,29.90
2022-10-18T10:18:54.242Z,27.80
2022-10-18T10:20:58.121Z,29.85
2022-10-18T10:23:26.772Z,33.25
2022-10-18T10:25:33.628Z,30.10
2022-10-18T10:27:43.615Z,28.50
2022-10-18T10:29:48.903Z,26.88
2022-10-18T10:32:04.894Z,32.72
2022-10-18T10:34:07.163Z,34.53
2022-10-18T10:36:17.525Z,29.77
2022-10-18T10:38:30.161Z,29.52
2022-10-18T10:40:50.898Z,29.73
2022-10-18T10:43:32.974Z,29.48
2022-10-18T10:45:40.908Z,31.13
2022-10-18T10:47:43.727Z,30.20
2022-10-18T10:49:48.842Z,31.10
2022-10-18T10:52:08.224Z,30.33
2022-10-18T10:54:23.198Z,27.88
2022-10-18T10:56:34.044Z,29.60
2022-10-18T10:58:41.055Z,37.80
2022-10-18T11:00:46.393Z,36.25
2022-10-18T11:02:59.304Z,29.13
2022-10-18T11:05:17.403Z,31.88
2022-10-18T11:07:19.787Z,32.25
2022-10-18T11:09:27.555Z,31.98
2022-10-18T11:11:34.343Z,30.90
2022-10-18T11:14:13.236Z,32.08
2022-10-18T11:16:40.413Z,33.35
2022-10-18T11:18:44.432Z,31.00
2022-10-18T11:20:46.699Z,30.55
2022-10-18T11:22:51.688Z,31.88
2022-10-18T11:24:53.991Z,31.05
2022-10-18T11:26:59.112Z,30.23
2022-10-18T11:29:23.143Z,25.98
2022-10-18T11:31:33.512Z,28.98
2022-10-18T11:34:06.987Z,27.00
2022-10-18T11:36:07.013Z,27.42
2022-10-18T11:38:17.278Z,24.95
2022-10-18T11:40:19.514Z,29.15
2022-10-18T11:42:37.886Z,26.52
2022-10-18T11:44:45.037Z,24.63
2022-10-18T11:46:50.329Z,23.15
2022-10-18T11:49:02.262Z,25.40
2022-10-18T11:51:10.739Z,30.23
2022-10-18T11:53:19.976Z,28.30
2022-10-18T11:55:28.905Z,27.65
2022-10-18T11:57:34.774Z,26.00
2022-10-18T11:59:49.343Z,26.98
2022-10-18T12:02:18.120Z,30.42
2022-10-18T12:04:22.360Z,27.95
2022-10-18T12:06:30.802Z,27.63
2022-10-18T12:09:02.686Z,25.23
2022-10-18T12:11:15.278Z,26.20
2022-10-18T12:13:19.571Z,25.17
2022-10-18T12:15:23.283Z,23.48
2022-10-18T12:17:42.776Z,26.60
2022-10-18T12:19:49.185Z,24.58
2022-10-18T12:21:52.159Z,23.10
2022-10-18T12:23:56.856Z,24.60
2022-10-18T12:26:03.562Z,27.13
2022-10-18T12:28:24.735Z,27.38
2022-10-18T12:30:27.125Z,22.80
2022-10-18T12:32:32.130Z,21.85
2022-10-18T12:34:43.480Z,23.15
2022-10-18T12:36:48.926Z,23.48
2022-10-18T12:39:05.784Z,24.35
2022-10-18T12:41:08.060Z,23.73
2022-10-18T12:43:18.912Z,25.38
2022-10-18T12:45:28.459Z,23.52
2022-10-18T12:47:31.555Z,20.15
2022-10-18T12:49:35.265Z,20.52
2022-10-18T12:51:49.952Z,20.83
2022-10-18T12:54:09.211Z,21.27
2022-10-18T12:56:29.773Z,20.40
2022-10-18T12:58:32.594Z,20.25
2022-10-18T13:00:34.813Z,21.60
2022-10-18T13:02:37.292Z,20.05
2022-10-18T13:04:40.090Z,20.48
2022-10-18T13:07:00.571Z,20.95
2022-10-18T13:09:29.197Z,22.65
2022-10-18T13:11:33.400Z,21.30
2022-10-18T13:13:44.830Z,22.15
2022-10-18T13:15:50.913Z,19.58
2022-10-18T13:18:31.717Z,22.85
2022-10-18T13:20:44.561Z,20.77
2022-10-18T13:22:49.661Z,18.25
2022-10-18T13:25:01.749Z,20.00
2022-10-18T13:29:44.549Z,19.20
2022-10-18T13:32:00.366Z,18.25
2022-10-18T13:34:33.148Z,18.00
2022-10-18T13:36:35.539Z,19.50
2022-10-18T13:38:49.531Z,19.55
2022-10-18T13:41:04.893Z,19.02
2022-10-18T13:43:26.011Z,19.90
2022-10-18T13:45:34.350Z,17.75
2022-10-18T13:47:38.101Z,19.13
2022-10-18T13:49:40.591Z,20.52
2022-10-18T13:51:43.123Z,20.15
2022-10-18T13:53:45.387Z,18.08
2022-10-18T13:56:02.053Z,20.10
2022-10-18T13:58:10.308Z,21.25
2022-10-18T14:00:23.716Z,16.98
2022-10-18T14:02:57.555Z,18.00
2022-10-18T14:05:23.646Z,20.60
2022-10-18T14:07:27.569Z,18.45
2022-10-18T14:09:44.354Z,17.70
2022-10-18T14:11:47.470Z,17.90
2022-10-18T14:13:55.365Z,17.45
2022-10-18T14:16:02.889Z,16.17
2022-10-18T14:18:16.181Z,18.05
2022-10-18T14:20:18.588Z,18.10
2022-10-18T14:22:23.018Z,17.58
2022-10-18T14:24:27.016Z,15.07
2022-10-18T14:26:29.391Z,16.77
2022-10-18T14:28:55.313Z,18.45
2022-10-18T14:30:54.162Z,18.98
2022-10-18T14:32:56.431Z,17.95
2022-10-18T14:35:27.574Z,17.48
2022-10-18T14:37:26.042Z,17.52
2022-10-18T14:39:32.827Z,15.93
2022-10-18T14:41:36.590Z,17.08
2022-10-18T14:43:38.867Z,19.90
2022-10-18T14:45:42.266Z,18.30
2022-10-18T14:47:45.833Z,20.23
2022-10-18T14:49:49.292Z,20.15
2022-10-18T14:51:53.524Z,15.27
2022-10-18T14:53:56.027Z,15.60
2022-10-18T14:56:01.710Z,14.57
2022-10-18T14:58:03.963Z,18.73
2022-10-18T15:00:08.472Z,16.65
2022-10-18T15:02:13.674Z,19.20
2022-10-18T15:04:16.829Z,18.45
2022-10-18T15:06:19.979Z,18.65
2022-10-18T15:08:22.888Z,19.10
2022-10-18T15:10:27.088Z,20.83
2022-10-18T15:12:36.861Z,23.40
2022-10-18T15:14:48.576Z,22.63
2022-10-18T15:16:53.018Z,22.85
2022-10-18T15:19:06.139Z,24.25
2022-10-18T15:21:28.654Z,22.85
2022-10-18T15:23:31.411Z,27.48
2022-10-18T15:25:35.985Z,39.65
2022-10-18T15:27:39.454Z,32.40
2022-10-18T15:29:43.600Z,27.08
2022-10-18T15:31:46.141Z,28.20
2022-10-18T15:33:48.368Z,35.03
2022-10-18T15:35:52.180Z,38.03
2022-10-18T15:37:55.762Z,38.30
2022-10-18T15:40:16.582Z,33.05
2022-10-18T15:42:37.971Z,42.63
2022-10-18T15:44:53.803Z,44.97
2022-10-18T15:46:58.181Z,41.03
2022-10-18T15:49:35.680Z,45.45
2022-10-18T15:51:48.485Z,37.40
2022-10-18T15:53:50.720Z,41.42
2022-10-18T15:55:53.588Z,39.92
2022-10-18T15:58:03.770Z,39.80
2022-10-18T16:00:08.028Z,40.58
2022-10-18T16:02:16.401Z,39.58
2022-10-18T16:04:25.012Z,37.90
2022-10-18T16:06:28.168Z,36.33
2022-10-18T16:08:32.492Z,36.75
2022-10-18T16:10:34.903Z,36.15
2022-10-18T16:12:37.213Z,40.92
2022-10-18T16:14:39.490Z,33.28
2022-10-18T16:16:41.777Z,40.55
2022-10-18T16:18:44.042Z,35.38
2022-10-18T16:20:47.190Z,38.10
2022-10-18T16:22:49.432Z,42.70
2022-10-18T16:24:52.778Z,35.60
2022-10-18T16:26:55.063Z,33.38
2022-10-18T16:28:58.121Z,39.50
2022-10-18T16:31:01.444Z,38.97
2022-10-18T16:33:03.745Z,41.92
2022-10-18T16:35:06.264Z,31.48
2022-10-18T16:37:08.568Z,30.48
2022-10-18T16:39:15.457Z,28.38
2022-10-18T16:41:17.740Z,25.55
2022-10-18T16:43:20.057Z,32.80
2022-10-18T16:45:22.556Z,26.98
2022-10-18T16:47:24.808Z,27.15
2022-10-18T16:49:27.351Z,31.05
2022-10-18T16:51:30.210Z,25.98
2022-10-18T16:53:32.905Z,32.17
2022-10-18T16:55:35.274Z,23.95
2022-10-18T16:57:37.532Z,32.33
2022-10-18T16:59:39.817Z,27.33
2022-10-18T17:01:42.118Z,25.38
2022-10-18T17:03:44.872Z,31.58
2022-10-18T17:05:47.226Z,29.75
2022-10-18T17:07:49.920Z,32.85
2022-10-18T17:09:52.193Z,23.00
2022-10-18T17:11:54.427Z,31.10
2022-10-18T17:13:56.865Z,26.13
2022-10-18T17:16:00.527Z,29.55
2022-10-18T17:18:03.964Z,27.42
2022-10-18T17:20:07.373Z,25.52
2022-10-18T17:22:09.773Z,32.28
2022-10-18T17:24:12.276Z,27.40
2022-10-18T17:26:28.256Z,24.58
2022-10-18T17:28:31.869Z,35.42
2022-10-18T17:30:35.070Z,30.55
2022-10-18T17:32:38.496Z,45.63
2022-10-18T17:36:43.401Z,168.68
2022-10-18T17:38:48.023Z,86.72
2022-10-18T17:40:52.748Z,582.25
2022-10-18T17:42:55.200Z,693.65
2022-10-18T17:44:57.855Z,1069.85
2022-10-18T17:47:00.280Z,606.97
2022-10-18T17:49:02.875Z,616.28
2022-10-18T17:51:09.081Z,417.40
2022-10-18T17:53:12.999Z,381.27
2022-10-18T17:55:15.873Z,365.08
2022-10-18T17:57:18.258Z,329.58
2022-10-18T17:59:20.557Z,301.48
2022-10-18T18:01:23.386Z,323.95
2022-10-18T18:03:25.716Z,357.08
2022-10-18T18:05:31.433Z,338.95
2022-10-18T18:07:33.743Z,414.35
2022-10-18T18:09:36.002Z,391.48
2022-10-18T18:11:39.505Z,373.45
2022-10-18T18:13:41.849Z,393.30
2022-10-18T18:15:44.147Z,371.10
2022-10-18T18:17:56.667Z,376.00
2022-10-18T18:19:59.750Z,357.48
2022-10-18T18:22:02.327Z,378.05
2022-10-18T18:24:04.689Z,375.08
2022-10-18T18:26:07.260Z,354.00
2022-10-18T18:28:09.526Z,344.00
2022-10-18T18:30:12.155Z,349.75
2022-10-18T18:32:15.374Z,363.48
2022-10-18T18:34:18.236Z,378.95
2022-10-18T18:36:21.190Z,370.83
2022-10-18T18:38:23.541Z,371.83
2022-10-18T18:40:26.177Z,339.55
2022-10-18T18:42:28.859Z,316.20
2022-10-18T18:44:32.187Z,311.65
2022-10-18T18:46:38.911Z,321.17
2022-10-18T18:48:41.575Z,340.35
2022-10-18T18:50:49.916Z,330.08
2022-10-18T18:52:52.199Z,337.10
2022-10-18T18:54:54.432Z,333.33
2022-10-18T18:56:58.019Z,328.52
2022-10-18T18:59:00.407Z,316.42
2022-10-18T19:01:06.152Z,307.30
2022-10-18T19:03:08.874Z,315.48
2022-10-18T19:05:11.193Z,300.50
2022-10-18T19:07:14.004Z,286.95
2022-10-18T19:09:20.395Z,283.48
2022-10-18T19:11:23.316Z,288.15
2022-10-18T19:13:26.615Z,299.58
2022-10-18T19:15:29.135Z,285.67
2022-10-18T19:17:31.629Z,284.30
2022-10-18T19:19:34.339Z,284.02
2022-10-18T19:21:37.809Z,266.90
2022-10-18T19:23:40.102Z,262.70
2022-10-18T19:25:42.319Z,277.58
2022-10-18T19:27:44.663Z,270.70
2022-10-18T19:29:48.687Z,258.75
2022-10-18T19:31:53.370Z,279.90
2022-10-18T19:33:59.555Z,263.70
2022-10-18T19:36:02.254Z,259.13
2022-10-18T19:38:04.525Z,247.63
2022-10-18T19:40:08.625Z,250.50
2022-10-18T19:42:15.709Z,244.63
2022-10-18T19:44:21.087Z,231.55
2022-10-18T19:46:23.527Z,240.30
2022-10-18T19:48:25.813Z,246.13
2022-10-18T19:50:28.112Z,235.57
2022-10-18T19:52:30.614Z,250.50
2022-10-18T19:54:33.740Z,237.95
2022-10-18T19:56:36.062Z,231.85
2022-10-18T19:58:38.766Z,216.75
2022-10-18T20:00:41.035Z,218.70
2022-10-18T20:02:43.322Z,225.52
2022-10-18T20:04:45.959Z,222.75
2022-10-18T20:06:48.332Z,225.02
2022-10-18T20:08:50.961Z,224.00
2022-10-18T20:10:54.101Z,197.98
2022-10-18T20:12:56.366Z,211.40
2022-10-18T20:14:58.635Z,209.93
2022-10-18T20:17:01.383Z,205.55
2022-10-18T20:19:07.271Z,209.70
2022-10-18T20:21:10.787Z,203.95
2022-10-18T20:23:13.771Z,202.13
2022-10-18T20:25:16.142Z,210.52
2022-10-18T20:27:18.764Z,201.50
2022-10-18T20:29:21.352Z,200.73
2022-10-18T20:31:25.112Z,197.20
2022-10-18T20:33:27.841Z,189.45
2022-10-18T20:35:30.362Z,181.38
2022-10-18T20:37:32.989Z,194.20
2022-10-18T20:39:35.793Z,193.30
2022-10-18T20:41:39.818Z,172.23
2022-10-18T20:43:42.776Z,171.60
2022-10-18T20:45:45.205Z,189.25
2022-10-18T20:47:47.536Z,173.10
2022-10-18T20:49:49.857Z,176.80
2022-10-18T20:51:52.121Z,181.02
2022-10-18T20:53:54.617Z,171.00
2022-10-18T20:56:04.659Z,160.73
2022-10-18T20:58:07.009Z,160.10
2022-10-18T21:00:11.603Z,153.00
2022-10-18T21:02:13.983Z,158.70
2022-10-18T21:04:16.570Z,165.60
2022-10-18T21:06:25.229Z,158.80
2022-10-18T21:08:27.493Z,169.40
2022-10-18T21:10:29.768Z,151.80
2022-10-18T21:12:32.239Z,155.60
2022-10-18T21:14:34.751Z,151.93
2022-10-18T21:16:37.038Z,158.50
2022-10-18T21:18:40.487Z,158.10
2022-10-18T21:20:42.727Z,151.02
2022-10-18T21:22:45.000Z,156.60
2022-10-18T21:24:50.426Z,142.13
2022-10-18T21:26:56.559Z,153.05
2022-10-18T21:28:59.847Z,153.02
2022-10-18T21:31:13.031Z,141.82
2022-10-18T21:33:15.275Z,150.40
2022-10-18T21:35:17.545Z,140.80
2022-10-18T21:37:25.160Z,144.10
2022-10-18T21:39:28.798Z,145.93
2022-10-18T21:41:31.841Z,138.57
2022-10-18T21:43:34.116Z,138.20
2022-10-18T21:45:36.386Z,139.07
2022-10-18T21:47:38.673Z,135.75
2022-10-18T21:49:40.917Z,135.15
2022-10-18T21:51:43.659Z,132.90
2022-10-18T21:53:46.668Z,125.75
2022-10-18T21:55:49.289Z,126.22
2022-10-18T21:57:51.519Z,127.00
2022-10-18T21:59:53.779Z,122.13
2022-10-18T22:01:56.232Z,127.15
2022-10-18T22:03:59.000Z,125.38
2022-10-18T22:06:02.662Z,124.82
2022-10-18T22:08:05.539Z,122.65
2022-10-18T22:10:07.957Z,118.00
2022-10-18T22:12:10.973Z,124.88
2022-10-18T22:14:13.366Z,114.20
2022-10-18T22:16:16.391Z,111.60
2022-10-18T22:18:18.920Z,114.28
2022-10-18T22:20:21.168Z,104.10
2022-10-18T22:22:23.850Z,110.25
2022-10-18T22:24:26.131Z,107.32
2022-10-18T22:26:30.182Z,114.45
2022-10-18T22:28:32.507Z,105.45
2022-10-18T22:30:37.985Z,111.05
2022-10-18T22:32:41.109Z,114.78
2022-10-18T22:34:43.396Z,105.57
2022-10-18T22:36:45.841Z,112.88
2022-10-18T22:38:48.126Z,106.35
2022-10-18T22:40:50.604Z,106.72
2022-10-18T22:42:52.886Z,102.90
2022-10-18T22:44:55.174Z,103.63
2022-10-18T22:46:57.422Z,102.55
2022-10-18T22:48:59.698Z,103.47
2022-10-18T22:51:02.376Z,106.20
2022-10-18T22:53:04.755Z,90.95
2022-10-18T22:55:07.261Z,93.13
2022-10-18T22:57:09.650Z,93.88
2022-10-18T22:59:11.917Z,99.43
2022-10-18T23:01:15.917Z,89.05
2022-10-18T23:03:18.973Z,95.95
2022-10-18T23:05:21.220Z,90.35
2022-10-18T23:07:23.500Z,99.18
2022-10-18T23:09:25.758Z,92.80
2022-10-18T23:11:28.957Z,93.72
2022-10-18T23:13:31.184Z,92.18
2022-10-18T23:15:33.780Z,85.15
2022-10-18T23:17:36.372Z,86.32
2022-10-18T23:19:38.851Z,81.75
2022-10-18T23:21:41.137Z,83.25
2022-10-18T23:23:43.747Z,83.28
2022-10-18T23:25:46.830Z,78.55
2022-10-18T23:27:50.857Z,78.03
2022-10-18T23:29:53.076Z,77.05
2022-10-18T23:31:55.313Z,76.28
2022-10-18T23:33:58.923Z,80.15
2022-10-18T23:36:01.162Z,78.78
2022-10-18T23:38:03.430Z,75.05
2022-10-18T23:40:06.012Z,76.43
2022-10-18T23:42:08.239Z,74.13
2022-10-18T23:44:11.470Z,70.65
2022-10-18T23:46:14.308Z,83.32
2022-10-18T23:48:16.550Z,76.10
2022-10-18T23:50:18.765Z,70.80
2022-10-18T23:52:21.121Z,74.55
2022-10-18T23:54:23.566Z,72.63
2022-10-18T23:56:25.871Z,72.22
2022-10-18T23:58:28.788Z,76.30
